sensor_id;sensor_type;location;lat;lon;timestamp;P1;durP1;ratioP1;P2;durP2;ratioP2
85318;SDS011;75722;49.004;12.120;2024-02-26T00:01:56;25.30;;;9.63;;
85318;SDS011;75722;49.004;12.120;2024-02-26T00:04:21;30.40;;;10.70;;
85318;SDS011;75722;49.004;12.120;2024-02-26T00:06:47;24.92;;;10.50;;
85318;SDS011;75722;49.004;12.120;2024-02-26T00:09:15;26.98;;;8.68;;
85318;SDS011;75722;49.004;12.120;2024-02-26T00:11:40;25.15;;;10.48;;
85318;SDS011;75722;49.004;12.120;2024-02-26T00:14:06;28.80;;;11.40;;
85318;SDS011;75722;49.004;12.120;2024-02-26T00:16:31;24.80;;;11.00;;
85318;SDS011;75722;49.004;12.120;2024-02-26T00:18:56;31.98;;;11.23;;
85318;SDS011;75722;49.004;12.120;2024-02-26T00:21:22;24.35;;;10.23;;
85318;SDS011;75722;49.004;12.120;2024-02-26T00:23:49;32.83;;;11.07;;
85318;SDS011;75722;49.004;12.120;2024-02-26T00:26:15;29.08;;;10.60;;
85318;SDS011;75722;49.004;12.120;2024-02-26T00:28:41;34.55;;;11.25;;
85318;SDS011;75722;49.004;12.120;2024-02-26T00:31:06;31.53;;;10.47;;
85318;SDS011;75722;49.004;12.120;2024-02-26T00:33:31;30.00;;;11.67;;
85318;SDS011;75722;49.004;12.120;2024-02-26T00:35:57;26.77;;;11.52;;
85318;SDS011;75722;49.004;12.120;2024-02-26T00:38:22;32.30;;;11.98;;
85318;SDS011;75722;49.004;12.120;2024-02-26T00:40:47;27.10;;;11.37;;
85318;SDS011;75722;49.004;12.120;2024-02-26T00:43:12;32.50;;;10.60;;
85318;SDS011;75722;49.004;12.120;2024-02-26T00:45:38;23.50;;;10.47;;
85318;SDS011;75722;49.004;12.120;2024-02-26T00:48:03;38.40;;;11.63;;
85318;SDS011;75722;49.004;12.120;2024-02-26T00:50:32;26.85;;;10.77;;
85318;SDS011;75722;49.004;12.120;2024-02-26T00:52:58;31.67;;;11.45;;
85318;SDS011;75722;49.004;12.120;2024-02-26T00:55:24;33.28;;;11.80;;
85318;SDS011;75722;49.004;12.120;2024-02-26T00:57:49;25.53;;;11.03;;
85318;SDS011;75722;49.004;12.120;2024-02-26T01:00:14;28.63;;;10.67;;
85318;SDS011;75722;49.004;12.120;2024-02-26T01:02:40;29.63;;;11.68;;
85318;SDS011;75722;49.004;12.120;2024-02-26T01:05:06;30.90;;;11.27;;
85318;SDS011;75722;49.004;12.120;2024-02-26T01:07:34;29.02;;;10.23;;
85318;SDS011;75722;49.004;12.120;2024-02-26T01:10:01;25.00;;;10.52;;
85318;SDS011;75722;49.004;12.120;2024-02-26T01:12:27;30.98;;;12.35;;
85318;SDS011;75722;49.004;12.120;2024-02-26T01:14:52;27.67;;;10.50;;
85318;SDS011;75722;49.004;12.120;2024-02-26T01:19:44;31.20;;;11.77;;
85318;SDS011;75722;49.004;12.120;2024-02-26T01:22:10;27.83;;;12.00;;
85318;SDS011;75722;49.004;12.120;2024-02-26T01:24:35;25.43;;;9.83;;
85318;SDS011;75722;49.004;12.120;2024-02-26T01:27:00;24.87;;;10.00;;
85318;SDS011;75722;49.004;12.120;2024-02-26T01:29:26;39.40;;;11.43;;
85318;SDS011;75722;49.004;12.120;2024-02-26T01:31:51;31.47;;;11.47;;
85318;SDS011;75722;49.004;12.120;2024-02-26T01:34:16;29.50;;;10.73;;
85318;SDS011;75722;49.004;12.120;2024-02-26T01:36:43;28.73;;;10.60;;
85318;SDS011;75722;49.004;12.120;2024-02-26T01:39:08;34.80;;;12.93;;
85318;SDS011;75722;49.004;12.120;2024-02-26T01:44:02;27.43;;;11.37;;
85318;SDS011;75722;49.004;12.120;2024-02-26T01:46:28;25.05;;;10.02;;
85318;SDS011;75722;49.004;12.120;2024-02-26T01:48:55;33.90;;;10.77;;
85318;SDS011;75722;49.004;12.120;2024-02-26T01:51:20;33.72;;;11.45;;
85318;SDS011;75722;49.004;12.120;2024-02-26T01:53:47;22.75;;;11.73;;
85318;SDS011;75722;49.004;12.120;2024-02-26T01:56:12;29.63;;;9.90;;
85318;SDS011;75722;49.004;12.120;2024-02-26T01:58:40;37.58;;;12.32;;
85318;SDS011;75722;49.004;12.120;2024-02-26T02:01:06;31.98;;;9.88;;
85318;SDS011;75722;49.004;12.120;2024-02-26T02:03:32;33.00;;;10.82;;
85318;SDS011;75722;49.004;12.120;2024-02-26T02:05:58;33.13;;;10.30;;
85318;SDS011;75722;49.004;12.120;2024-02-26T02:08:24;27.30;;;10.82;;
85318;SDS011;75722;49.004;12.120;2024-02-26T02:10:50;30.10;;;11.02;;
85318;SDS011;75722;49.004;12.120;2024-02-26T02:13:15;24.73;;;9.93;;
85318;SDS011;75722;49.004;12.120;2024-02-26T02:15:40;31.33;;;11.20;;
85318;SDS011;75722;49.004;12.120;2024-02-26T02:18:06;26.60;;;9.93;;
85318;SDS011;75722;49.004;12.120;2024-02-26T02:20:35;21.60;;;9.63;;
85318;SDS011;75722;49.004;12.120;2024-02-26T02:23:01;26.02;;;10.10;;
85318;SDS011;75722;49.004;12.120;2024-02-26T02:25:26;29.75;;;9.20;;
85318;SDS011;75722;49.004;12.120;2024-02-26T02:27:53;27.38;;;10.38;;
85318;SDS011;75722;49.004;12.120;2024-02-26T02:30:28;24.23;;;9.85;;
85318;SDS011;75722;49.004;12.120;2024-02-26T02:32:54;21.15;;;9.13;;
85318;SDS011;75722;49.004;12.120;2024-02-26T02:35:20;23.13;;;9.55;;
85318;SDS011;75722;49.004;12.120;2024-02-26T02:37:46;22.15;;;9.15;;
85318;SDS011;75722;49.004;12.120;2024-02-26T02:40:11;24.23;;;9.30;;
85318;SDS011;75722;49.004;12.120;2024-02-26T02:42:36;14.38;;;6.72;;
85318;SDS011;75722;49.004;12.120;2024-02-26T02:45:02;15.37;;;6.27;;
85318;SDS011;75722;49.004;12.120;2024-02-26T02:47:27;15.52;;;6.18;;
85318;SDS011;75722;49.004;12.120;2024-02-26T02:49:52;16.23;;;6.23;;
85318;SDS011;75722;49.004;12.120;2024-02-26T02:52:18;16.20;;;6.40;;
85318;SDS011;75722;49.004;12.120;2024-02-26T02:54:43;10.88;;;5.25;;
85318;SDS011;75722;49.004;12.120;2024-02-26T02:57:08;17.80;;;6.87;;
85318;SDS011;75722;49.004;12.120;2024-02-26T02:59:34;12.35;;;5.35;;
85318;SDS011;75722;49.004;12.120;2024-02-26T03:02:00;14.25;;;5.60;;
85318;SDS011;75722;49.004;12.120;2024-02-26T03:04:26;11.60;;;5.35;;
85318;SDS011;75722;49.004;12.120;2024-02-26T03:06:51;15.32;;;5.90;;
85318;SDS011;75722;49.004;12.120;2024-02-26T03:09:16;12.70;;;5.63;;
85318;SDS011;75722;49.004;12.120;2024-02-26T03:11:42;14.73;;;5.50;;
85318;SDS011;75722;49.004;12.120;2024-02-26T03:14:08;14.05;;;5.60;;
85318;SDS011;75722;49.004;12.120;2024-02-26T03:16:34;12.13;;;5.00;;
85318;SDS011;75722;49.004;12.120;2024-02-26T03:19:00;14.68;;;6.63;;
85318;SDS011;75722;49.004;12.120;2024-02-26T03:21:25;11.02;;;4.75;;
85318;SDS011;75722;49.004;12.120;2024-02-26T03:23:52;17.52;;;7.15;;
85318;SDS011;75722;49.004;12.120;2024-02-26T03:26:18;12.32;;;6.20;;
85318;SDS011;75722;49.004;12.120;2024-02-26T03:28:43;12.57;;;5.35;;
85318;SDS011;75722;49.004;12.120;2024-02-26T03:31:09;13.07;;;5.17;;
85318;SDS011;75722;49.004;12.120;2024-02-26T03:33:35;9.52;;;5.07;;
85318;SDS011;75722;49.004;12.120;2024-02-26T03:36:01;13.65;;;5.20;;
85318;SDS011;75722;49.004;12.120;2024-02-26T03:38:27;13.50;;;5.57;;
85318;SDS011;75722;49.004;12.120;2024-02-26T03:40:53;10.85;;;5.15;;
85318;SDS011;75722;49.004;12.120;2024-02-26T03:43:18;15.90;;;6.13;;
85318;SDS011;75722;49.004;12.120;2024-02-26T03:45:44;10.30;;;6.10;;
85318;SDS011;75722;49.004;12.120;2024-02-26T03:48:09;7.93;;;4.80;;
85318;SDS011;75722;49.004;12.120;2024-02-26T03:50:34;9.20;;;4.80;;
85318;SDS011;75722;49.004;12.120;2024-02-26T03:53:00;9.57;;;5.10;;
85318;SDS011;75722;49.004;12.120;2024-02-26T03:55:25;16.02;;;5.68;;
85318;SDS011;75722;49.004;12.120;2024-02-26T03:57:51;11.40;;;4.55;;
85318;SDS011;75722;49.004;12.120;2024-02-26T04:00:17;13.55;;;5.43;;
85318;SDS011;75722;49.004;12.120;2024-02-26T04:02:43;12.15;;;4.55;;
85318;SDS011;75722;49.004;12.120;2024-02-26T04:05:11;12.13;;;4.75;;
85318;SDS011;75722;49.004;12.120;2024-02-26T04:07:37;19.60;;;5.30;;
85318;SDS011;75722;49.004;12.120;2024-02-26T04:10:02;8.82;;;4.35;;
85318;SDS011;75722;49.004;12.120;2024-02-26T04:12:31;9.07;;;4.60;;
85318;SDS011;75722;49.004;12.120;2024-02-26T04:14:56;15.00;;;5.83;;
85318;SDS011;75722;49.004;12.120;2024-02-26T04:17:21;11.30;;;5.50;;
85318;SDS011;75722;49.004;12.120;2024-02-26T04:19:47;8.95;;;4.97;;
85318;SDS011;75722;49.004;12.120;2024-02-26T04:22:12;11.63;;;5.25;;
85318;SDS011;75722;49.004;12.120;2024-02-26T04:24:37;9.02;;;4.28;;
85318;SDS011;75722;49.004;12.120;2024-02-26T04:27:03;9.98;;;4.97;;
85318;SDS011;75722;49.004;12.120;2024-02-26T04:29:28;9.60;;;4.88;;
85318;SDS011;75722;49.004;12.120;2024-02-26T04:31:54;10.50;;;5.43;;
85318;SDS011;75722;49.004;12.120;2024-02-26T04:34:19;10.57;;;5.43;;
85318;SDS011;75722;49.004;12.120;2024-02-26T04:36:44;9.40;;;4.53;;
85318;SDS011;75722;49.004;12.120;2024-02-26T04:39:10;13.20;;;4.40;;
85318;SDS011;75722;49.004;12.120;2024-02-26T04:41:35;10.60;;;4.68;;
85318;SDS011;75722;49.004;12.120;2024-02-26T04:44:01;10.17;;;3.87;;
85318;SDS011;75722;49.004;12.120;2024-02-26T04:46:26;8.25;;;4.78;;
85318;SDS011;75722;49.004;12.120;2024-02-26T04:48:53;9.60;;;4.70;;
85318;SDS011;75722;49.004;12.120;2024-02-26T04:51:18;9.57;;;4.65;;
85318;SDS011;75722;49.004;12.120;2024-02-26T04:53:44;8.75;;;3.90;;
85318;SDS011;75722;49.004;12.120;2024-02-26T04:56:09;10.65;;;4.07;;
85318;SDS011;75722;49.004;12.120;2024-02-26T04:58:34;10.52;;;4.05;;
85318;SDS011;75722;49.004;12.120;2024-02-26T05:01:00;8.33;;;4.43;;
85318;SDS011;75722;49.004;12.120;2024-02-26T05:03:25;9.67;;;4.97;;
85318;SDS011;75722;49.004;12.120;2024-02-26T05:05:50;9.00;;;4.85;;
85318;SDS011;75722;49.004;12.120;2024-02-26T05:08:16;9.93;;;4.40;;
85318;SDS011;75722;49.004;12.120;2024-02-26T05:10:41;7.40;;;3.75;;
85318;SDS011;75722;49.004;12.120;2024-02-26T05:13:08;7.93;;;4.75;;
85318;SDS011;75722;49.004;12.120;2024-02-26T05:15:33;7.85;;;4.25;;
85318;SDS011;75722;49.004;12.120;2024-02-26T05:17:59;6.38;;;4.20;;
85318;SDS011;75722;49.004;12.120;2024-02-26T05:20:25;10.77;;;4.22;;
85318;SDS011;75722;49.004;12.120;2024-02-26T05:22:50;9.20;;;4.20;;
85318;SDS011;75722;49.004;12.120;2024-02-26T05:25:15;13.65;;;5.18;;
85318;SDS011;75722;49.004;12.120;2024-02-26T05:27:42;6.05;;;3.40;;
85318;SDS011;75722;49.004;12.120;2024-02-26T05:30:08;8.05;;;4.07;;
85318;SDS011;75722;49.004;12.120;2024-02-26T05:32:34;8.45;;;4.97;;
85318;SDS011;75722;49.004;12.120;2024-02-26T05:34:59;9.88;;;5.15;;
85318;SDS011;75722;49.004;12.120;2024-02-26T05:37:25;6.50;;;3.72;;
85318;SDS011;75722;49.004;12.120;2024-02-26T05:39:50;7.07;;;3.77;;
85318;SDS011;75722;49.004;12.120;2024-02-26T05:42:17;9.88;;;3.88;;
85318;SDS011;75722;49.004;12.120;2024-02-26T05:44:42;6.10;;;3.57;;
85318;SDS011;75722;49.004;12.120;2024-02-26T05:47:07;7.17;;;4.37;;
85318;SDS011;75722;49.004;12.120;2024-02-26T05:49:32;10.33;;;4.43;;
85318;SDS011;75722;49.004;12.120;2024-02-26T05:51:58;10.85;;;4.45;;
85318;SDS011;75722;49.004;12.120;2024-02-26T05:54:24;7.25;;;3.65;;
85318;SDS011;75722;49.004;12.120;2024-02-26T05:56:49;8.33;;;4.17;;
85318;SDS011;75722;49.004;12.120;2024-02-26T05:59:14;8.87;;;3.63;;
85318;SDS011;75722;49.004;12.120;2024-02-26T06:01:40;10.00;;;3.90;;
85318;SDS011;75722;49.004;12.120;2024-02-26T06:04:06;7.53;;;3.85;;
85318;SDS011;75722;49.004;12.120;2024-02-26T06:06:31;9.97;;;4.00;;
85318;SDS011;75722;49.004;12.120;2024-02-26T06:08:57;9.70;;;4.07;;
85318;SDS011;75722;49.004;12.120;2024-02-26T06:11:22;10.10;;;4.85;;
85318;SDS011;75722;49.004;12.120;2024-02-26T06:13:48;11.15;;;4.38;;
85318;SDS011;75722;49.004;12.120;2024-02-26T06:16:13;9.50;;;4.00;;
85318;SDS011;75722;49.004;12.120;2024-02-26T06:18:38;9.80;;;4.18;;
85318;SDS011;75722;49.004;12.120;2024-02-26T06:21:04;3.78;;;3.13;;
85318;SDS011;75722;49.004;12.120;2024-02-26T06:23:29;6.40;;;3.35;;
85318;SDS011;75722;49.004;12.120;2024-02-26T06:25:54;10.47;;;4.00;;
85318;SDS011;75722;49.004;12.120;2024-02-26T06:28:20;7.00;;;4.22;;
85318;SDS011;75722;49.004;12.120;2024-02-26T06:30:45;12.75;;;4.43;;
85318;SDS011;75722;49.004;12.120;2024-02-26T06:33:11;8.35;;;4.47;;
85318;SDS011;75722;49.004;12.120;2024-02-26T06:35:37;15.43;;;4.70;;
85318;SDS011;75722;49.004;12.120;2024-02-26T06:38:02;9.70;;;4.07;;
85318;SDS011;75722;49.004;12.120;2024-02-26T06:40:28;9.38;;;4.03;;
85318;SDS011;75722;49.004;12.120;2024-02-26T06:42:53;8.48;;;3.90;;
85318;SDS011;75722;49.004;12.120;2024-02-26T06:45:18;10.65;;;4.75;;
85318;SDS011;75722;49.004;12.120;2024-02-26T06:47:44;8.30;;;4.28;;
85318;SDS011;75722;49.004;12.120;2024-02-26T06:50:11;9.65;;;4.28;;
85318;SDS011;75722;49.004;12.120;2024-02-26T06:52:37;8.95;;;4.45;;
85318;SDS011;75722;49.004;12.120;2024-02-26T06:55:02;9.57;;;4.13;;
85318;SDS011;75722;49.004;12.120;2024-02-26T06:57:27;8.45;;;4.40;;
85318;SDS011;75722;49.004;12.120;2024-02-26T06:59:53;5.85;;;3.65;;
85318;SDS011;75722;49.004;12.120;2024-02-26T07:02:18;11.52;;;4.78;;
85318;SDS011;75722;49.004;12.120;2024-02-26T07:04:44;6.70;;;4.40;;
85318;SDS011;75722;49.004;12.120;2024-02-26T07:07:09;17.03;;;5.00;;
85318;SDS011;75722;49.004;12.120;2024-02-26T07:09:35;8.82;;;3.45;;
85318;SDS011;75722;49.004;12.120;2024-02-26T07:12:01;8.25;;;3.70;;
85318;SDS011;75722;49.004;12.120;2024-02-26T07:14:27;6.20;;;3.50;;
85318;SDS011;75722;49.004;12.120;2024-02-26T07:16:52;8.20;;;4.45;;
85318;SDS011;75722;49.004;12.120;2024-02-26T07:19:18;7.57;;;3.90;;
85318;SDS011;75722;49.004;12.120;2024-02-26T07:21:43;8.90;;;3.60;;
85318;SDS011;75722;49.004;12.120;2024-02-26T07:24:08;10.43;;;3.70;;
85318;SDS011;75722;49.004;12.120;2024-02-26T07:26:34;7.60;;;4.10;;
85318;SDS011;75722;49.004;12.120;2024-02-26T07:28:59;7.82;;;3.45;;
85318;SDS011;75722;49.004;12.120;2024-02-26T07:31:25;6.93;;;3.25;;
85318;SDS011;75722;49.004;12.120;2024-02-26T07:33:50;8.65;;;3.25;;
85318;SDS011;75722;49.004;12.120;2024-02-26T07:36:16;7.63;;;2.95;;
85318;SDS011;75722;49.004;12.120;2024-02-26T07:38:41;8.10;;;3.38;;
85318;SDS011;75722;49.004;12.120;2024-02-26T07:41:07;5.53;;;3.13;;
85318;SDS011;75722;49.004;12.120;2024-02-26T07:43:32;6.95;;;3.80;;
85318;SDS011;75722;49.004;12.120;2024-02-26T07:45:58;10.20;;;3.35;;
85318;SDS011;75722;49.004;12.120;2024-02-26T07:48:23;7.03;;;3.95;;
85318;SDS011;75722;49.004;12.120;2024-02-26T07:50:48;5.87;;;3.50;;
85318;SDS011;75722;49.004;12.120;2024-02-26T07:53:14;8.50;;;3.17;;
85318;SDS011;75722;49.004;12.120;2024-02-26T07:55:39;5.03;;;2.90;;
85318;SDS011;75722;49.004;12.120;2024-02-26T07:58:04;7.65;;;4.05;;
85318;SDS011;75722;49.004;12.120;2024-02-26T08:00:30;8.88;;;3.58;;
85318;SDS011;75722;49.004;12.120;2024-02-26T08:02:55;7.70;;;3.73;;
85318;SDS011;75722;49.004;12.120;2024-02-26T08:05:20;8.27;;;4.20;;
85318;SDS011;75722;49.004;12.120;2024-02-26T08:07:46;10.63;;;3.60;;
85318;SDS011;75722;49.004;12.120;2024-02-26T08:10:11;8.00;;;3.60;;
85318;SDS011;75722;49.004;12.120;2024-02-26T08:12:36;6.95;;;3.35;;
85318;SDS011;75722;49.004;12.120;2024-02-26T08:15:02;7.68;;;3.50;;
85318;SDS011;75722;49.004;12.120;2024-02-26T08:17:28;6.95;;;3.75;;
85318;SDS011;75722;49.004;12.120;2024-02-26T08:19:53;10.02;;;3.85;;
85318;SDS011;75722;49.004;12.120;2024-02-26T08:22:18;6.55;;;3.50;;
85318;SDS011;75722;49.004;12.120;2024-02-26T08:24:44;6.88;;;4.10;;
85318;SDS011;75722;49.004;12.120;2024-02-26T08:27:09;13.95;;;3.92;;
85318;SDS011;75722;49.004;12.120;2024-02-26T08:29:35;8.05;;;3.83;;
85318;SDS011;75722;49.004;12.120;2024-02-26T08:32:00;8.05;;;4.18;;
85318;SDS011;75722;49.004;12.120;2024-02-26T08:34:26;6.68;;;3.70;;
85318;SDS011;75722;49.004;12.120;2024-02-26T08:36:51;8.27;;;4.43;;
85318;SDS011;75722;49.004;12.120;2024-02-26T08:39:17;7.78;;;4.68;;
85318;SDS011;75722;49.004;12.120;2024-02-26T08:41:45;9.70;;;4.88;;
85318;SDS011;75722;49.004;12.120;2024-02-26T08:44:11;8.48;;;3.97;;
85318;SDS011;75722;49.004;12.120;2024-02-26T08:46:36;6.65;;;3.75;;
85318;SDS011;75722;49.004;12.120;2024-02-26T08:49:02;9.55;;;3.92;;
85318;SDS011;75722;49.004;12.120;2024-02-26T08:51:28;9.45;;;3.88;;
85318;SDS011;75722;49.004;12.120;2024-02-26T08:53:53;5.53;;;3.37;;
85318;SDS011;75722;49.004;12.120;2024-02-26T08:56:19;4.95;;;3.72;;
85318;SDS011;75722;49.004;12.120;2024-02-26T08:58:46;7.93;;;4.38;;
85318;SDS011;75722;49.004;12.120;2024-02-26T09:01:13;7.22;;;3.80;;
85318;SDS011;75722;49.004;12.120;2024-02-26T09:03:39;5.40;;;3.88;;
85318;SDS011;75722;49.004;12.120;2024-02-26T09:06:05;5.00;;;3.80;;
85318;SDS011;75722;49.004;12.120;2024-02-26T09:08:31;7.82;;;3.97;;
85318;SDS011;75722;49.004;12.120;2024-02-26T09:10:57;6.75;;;3.70;;
85318;SDS011;75722;49.004;12.120;2024-02-26T09:13:22;7.90;;;3.88;;
85318;SDS011;75722;49.004;12.120;2024-02-26T09:15:48;8.23;;;3.60;;
85318;SDS011;75722;49.004;12.120;2024-02-26T09:18:13;11.63;;;5.72;;
85318;SDS011;75722;49.004;12.120;2024-02-26T09:20:39;7.75;;;3.38;;
85318;SDS011;75722;49.004;12.120;2024-02-26T09:23:05;7.65;;;3.35;;
85318;SDS011;75722;49.004;12.120;2024-02-26T09:25:30;10.03;;;2.93;;
85318;SDS011;75722;49.004;12.120;2024-02-26T09:27:55;5.22;;;2.95;;
85318;SDS011;75722;49.004;12.120;2024-02-26T09:30:21;5.63;;;3.20;;
85318;SDS011;75722;49.004;12.120;2024-02-26T09:32:46;10.40;;;3.63;;
85318;SDS011;75722;49.004;12.120;2024-02-26T09:35:13;5.72;;;2.83;;
85318;SDS011;75722;49.004;12.120;2024-02-26T09:37:38;6.47;;;2.63;;
85318;SDS011;75722;49.004;12.120;2024-02-26T09:40:04;7.72;;;2.50;;
85318;SDS011;75722;49.004;12.120;2024-02-26T09:42:31;10.07;;;3.00;;
85318;SDS011;75722;49.004;12.120;2024-02-26T09:44:58;6.22;;;2.53;;
85318;SDS011;75722;49.004;12.120;2024-02-26T09:47:31;4.30;;;2.58;;
85318;SDS011;75722;49.004;12.120;2024-02-26T09:49:57;7.78;;;2.10;;
85318;SDS011;75722;49.004;12.120;2024-02-26T09:52:24;7.22;;;2.30;;
85318;SDS011;75722;49.004;12.120;2024-02-26T09:54:50;4.90;;;2.17;;
85318;SDS011;75722;49.004;12.120;2024-02-26T09:57:16;3.30;;;2.25;;
85318;SDS011;75722;49.004;12.120;2024-02-26T09:59:43;3.25;;;1.80;;
85318;SDS011;75722;49.004;12.120;2024-02-26T10:02:09;4.35;;;2.40;;
85318;SDS011;75722;49.004;12.120;2024-02-26T10:04:37;4.05;;;1.70;;
85318;SDS011;75722;49.004;12.120;2024-02-26T10:07:04;6.32;;;1.85;;
85318;SDS011;75722;49.004;12.120;2024-02-26T10:09:34;5.38;;;2.05;;
85318;SDS011;75722;49.004;12.120;2024-02-26T10:12:00;5.10;;;1.95;;
85318;SDS011;75722;49.004;12.120;2024-02-26T10:14:25;3.70;;;2.28;;
85318;SDS011;75722;49.004;12.120;2024-02-26T10:16:51;2.30;;;1.67;;
85318;SDS011;75722;49.004;12.120;2024-02-26T10:19:24;4.68;;;2.00;;
85318;SDS011;75722;49.004;12.120;2024-02-26T10:21:57;4.18;;;2.30;;
85318;SDS011;75722;49.004;12.120;2024-02-26T10:24:27;5.93;;;2.17;;
85318;SDS011;75722;49.004;12.120;2024-02-26T10:26:54;3.38;;;1.70;;
85318;SDS011;75722;49.004;12.120;2024-02-26T10:29:21;2.92;;;2.15;;
85318;SDS011;75722;49.004;12.120;2024-02-26T10:31:47;4.60;;;2.03;;
85318;SDS011;75722;49.004;12.120;2024-02-26T10:34:14;6.63;;;2.50;;
85318;SDS011;75722;49.004;12.120;2024-02-26T10:36:40;3.13;;;1.75;;
85318;SDS011;75722;49.004;12.120;2024-02-26T10:39:08;5.68;;;2.20;;
85318;SDS011;75722;49.004;12.120;2024-02-26T10:41:34;5.63;;;2.30;;
85318;SDS011;75722;49.004;12.120;2024-02-26T10:44:00;6.13;;;1.92;;
85318;SDS011;75722;49.004;12.120;2024-02-26T10:46:25;3.65;;;1.60;;
85318;SDS011;75722;49.004;12.120;2024-02-26T10:48:51;3.08;;;2.10;;
85318;SDS011;75722;49.004;12.120;2024-02-26T10:51:18;7.38;;;1.92;;
85318;SDS011;75722;49.004;12.120;2024-02-26T10:53:46;6.65;;;1.80;;
85318;SDS011;75722;49.004;12.120;2024-02-26T10:56:15;4.22;;;1.75;;
85318;SDS011;75722;49.004;12.120;2024-02-26T11:01:10;3.63;;;1.75;;
85318;SDS011;75722;49.004;12.120;2024-02-26T11:03:38;3.60;;;1.63;;
85318;SDS011;75722;49.004;12.120;2024-02-26T11:06:04;2.30;;;1.50;;
85318;SDS011;75722;49.004;12.120;2024-02-26T11:08:30;3.58;;;1.40;;
85318;SDS011;75722;49.004;12.120;2024-02-26T11:10:57;4.45;;;1.90;;
85318;SDS011;75722;49.004;12.120;2024-02-26T11:13:23;3.13;;;1.80;;
85318;SDS011;75722;49.004;12.120;2024-02-26T11:15:55;4.82;;;1.70;;
85318;SDS011;75722;49.004;12.120;2024-02-26T11:18:22;1.75;;;1.10;;
85318;SDS011;75722;49.004;12.120;2024-02-26T11:20:51;6.47;;;1.90;;
85318;SDS011;75722;49.004;12.120;2024-02-26T11:23:19;3.30;;;1.70;;
85318;SDS011;75722;49.004;12.120;2024-02-26T11:25:45;3.95;;;1.42;;
85318;SDS011;75722;49.004;12.120;2024-02-26T11:28:14;2.15;;;1.48;;
85318;SDS011;75722;49.004;12.120;2024-02-26T11:30:43;4.75;;;1.70;;
85318;SDS011;75722;49.004;12.120;2024-02-26T11:33:11;3.22;;;1.70;;
85318;SDS011;75722;49.004;12.120;2024-02-26T11:35:38;2.78;;;1.35;;
85318;SDS011;75722;49.004;12.120;2024-02-26T11:38:04;2.78;;;1.60;;
85318;SDS011;75722;49.004;12.120;2024-02-26T11:40:31;4.43;;;1.55;;
85318;SDS011;75722;49.004;12.120;2024-02-26T11:42:57;2.58;;;1.40;;
85318;SDS011;75722;49.004;12.120;2024-02-26T11:48:04;2.88;;;1.70;;
85318;SDS011;75722;49.004;12.120;2024-02-26T11:50:36;4.63;;;1.50;;
85318;SDS011;75722;49.004;12.120;2024-02-26T11:55:48;3.65;;;1.38;;
85318;SDS011;75722;49.004;12.120;2024-02-26T11:58:43;4.90;;;1.42;;
85318;SDS011;75722;49.004;12.120;2024-02-26T12:04:02;3.60;;;1.30;;
85318;SDS011;75722;49.004;12.120;2024-02-26T12:06:29;4.80;;;1.90;;
85318;SDS011;75722;49.004;12.120;2024-02-26T12:08:55;3.58;;;1.42;;
85318;SDS011;75722;49.004;12.120;2024-02-26T12:11:21;2.60;;;1.60;;
85318;SDS011;75722;49.004;12.120;2024-02-26T12:13:47;4.07;;;1.35;;
85318;SDS011;75722;49.004;12.120;2024-02-26T12:19:06;2.40;;;1.73;;
85318;SDS011;75722;49.004;12.120;2024-02-26T12:21:33;10.60;;;2.03;;
85318;SDS011;75722;49.004;12.120;2024-02-26T12:24:10;14.85;;;1.98;;
85318;SDS011;75722;49.004;12.120;2024-02-26T12:26:37;7.82;;;1.60;;
85318;SDS011;75722;49.004;12.120;2024-02-26T12:29:03;5.72;;;1.67;;
85318;SDS011;75722;49.004;12.120;2024-02-26T12:31:28;4.03;;;1.88;;
85318;SDS011;75722;49.004;12.120;2024-02-26T12:33:54;8.65;;;2.78;;
85318;SDS011;75722;49.004;12.120;2024-02-26T12:36:20;6.07;;;1.80;;
85318;SDS011;75722;49.004;12.120;2024-02-26T12:38:46;4.47;;;1.55;;
85318;SDS011;75722;49.004;12.120;2024-02-26T12:41:11;5.50;;;1.90;;
85318;SDS011;75722;49.004;12.120;2024-02-26T12:43:38;3.05;;;1.40;;
85318;SDS011;75722;49.004;12.120;2024-02-26T12:46:03;4.70;;;2.00;;
85318;SDS011;75722;49.004;12.120;2024-02-26T12:48:29;3.67;;;1.60;;
85318;SDS011;75722;49.004;12.120;2024-02-26T12:50:54;4.13;;;1.33;;
85318;SDS011;75722;49.004;12.120;2024-02-26T12:53:21;3.05;;;1.40;;
85318;SDS011;75722;49.004;12.120;2024-02-26T12:55:49;2.75;;;1.25;;
85318;SDS011;75722;49.004;12.120;2024-02-26T12:58:14;2.08;;;1.13;;
85318;SDS011;75722;49.004;12.120;2024-02-26T13:00:40;2.40;;;1.40;;
85318;SDS011;75722;49.004;12.120;2024-02-26T13:03:06;5.85;;;1.40;;
85318;SDS011;75722;49.004;12.120;2024-02-26T13:05:31;6.30;;;1.75;;
85318;SDS011;75722;49.004;12.120;2024-02-26T13:07:58;4.40;;;1.45;;
85318;SDS011;75722;49.004;12.120;2024-02-26T13:10:23;5.03;;;1.90;;
85318;SDS011;75722;49.004;12.120;2024-02-26T13:12:50;2.55;;;1.02;;
85318;SDS011;75722;49.004;12.120;2024-02-26T13:15:16;7.65;;;1.10;;
85318;SDS011;75722;49.004;12.120;2024-02-26T13:17:43;1.10;;;1.00;;
85318;SDS011;75722;49.004;12.120;2024-02-26T13:20:09;1.80;;;1.00;;
85318;SDS011;75722;49.004;12.120;2024-02-26T13:22:35;2.22;;;0.90;;
85318;SDS011;75722;49.004;12.120;2024-02-26T13:25:01;3.67;;;1.02;;
85318;SDS011;75722;49.004;12.120;2024-02-26T13:30:04;3.97;;;1.00;;
85318;SDS011;75722;49.004;12.120;2024-02-26T13:32:39;4.40;;;0.93;;
85318;SDS011;75722;49.004;12.120;2024-02-26T13:35:10;4.53;;;2.28;;
85318;SDS011;75722;49.004;12.120;2024-02-26T13:37:38;3.58;;;0.88;;
85318;SDS011;75722;49.004;12.120;2024-02-26T13:40:05;2.28;;;0.90;;
85318;SDS011;75722;49.004;12.120;2024-02-26T13:42:32;3.80;;;1.25;;
85318;SDS011;75722;49.004;12.120;2024-02-26T13:44:57;2.00;;;1.02;;
85318;SDS011;75722;49.004;12.120;2024-02-26T13:47:23;2.00;;;0.80;;
85318;SDS011;75722;49.004;12.120;2024-02-26T13:49:48;2.85;;;0.90;;
85318;SDS011;75722;49.004;12.120;2024-02-26T13:52:13;2.83;;;0.80;;
85318;SDS011;75722;49.004;12.120;2024-02-26T13:54:39;1.90;;;0.90;;
85318;SDS011;75722;49.004;12.120;2024-02-26T13:57:05;1.42;;;0.85;;
85318;SDS011;75722;49.004;12.120;2024-02-26T13:59:31;2.17;;;1.00;;
85318;SDS011;75722;49.004;12.120;2024-02-26T14:01:56;4.60;;;0.75;;
85318;SDS011;75722;49.004;12.120;2024-02-26T14:04:22;1.75;;;1.10;;
85318;SDS011;75722;49.004;12.120;2024-02-26T14:06:47;2.90;;;0.73;;
85318;SDS011;75722;49.004;12.120;2024-02-26T14:09:12;1.13;;;0.63;;
85318;SDS011;75722;49.004;12.120;2024-02-26T14:11:43;9.20;;;1.63;;
85318;SDS011;75722;49.004;12.120;2024-02-26T14:14:10;3.35;;;1.10;;
85318;SDS011;75722;49.004;12.120;2024-02-26T14:16:35;6.20;;;1.20;;
85318;SDS011;75722;49.004;12.120;2024-02-26T14:19:01;1.73;;;0.77;;
85318;SDS011;75722;49.004;12.120;2024-02-26T14:21:27;0.90;;;0.50;;
85318;SDS011;75722;49.004;12.120;2024-02-26T14:23:52;2.15;;;0.90;;
85318;SDS011;75722;49.004;12.120;2024-02-26T14:26:17;2.43;;;0.83;;
85318;SDS011;75722;49.004;12.120;2024-02-26T14:28:43;1.02;;;0.70;;
85318;SDS011;75722;49.004;12.120;2024-02-26T14:31:08;1.10;;;0.60;;
85318;SDS011;75722;49.004;12.120;2024-02-26T14:33:37;3.83;;;0.90;;
85318;SDS011;75722;49.004;12.120;2024-02-26T14:36:04;3.08;;;1.05;;
85318;SDS011;75722;49.004;12.120;2024-02-26T14:38:29;6.80;;;2.45;;
85318;SDS011;75722;49.004;12.120;2024-02-26T14:40:55;6.20;;;2.60;;
85318;SDS011;75722;49.004;12.120;2024-02-26T14:43:21;6.90;;;2.92;;